createdAt,value
2018-09-03T00:01:14.915Z,23.17
2018-09-03T00:03:43.533Z,27.87
2018-09-03T00:06:12.289Z,23.97
2018-09-03T00:08:41.994Z,23.30
2018-09-03T00:11:10.689Z,22.90
2018-09-03T00:13:39.437Z,24.07
2018-09-03T00:16:08.129Z,26.23
2018-09-03T00:18:36.800Z,28.00
2018-09-03T00:21:14.044Z,25.93
2018-09-03T00:23:42.673Z,24.27
2018-09-03T00:26:11.270Z,28.10
2018-09-03T00:28:40.970Z,23.67
2018-09-03T00:31:14.693Z,23.73
2018-09-03T00:33:48.536Z,26.27
2018-09-03T00:36:22.329Z,24.60
2018-09-03T00:38:56.359Z,23.70
2018-09-03T00:41:31.240Z,23.57
2018-09-03T00:44:04.960Z,25.23
2018-09-03T00:46:38.933Z,24.27
2018-09-03T00:49:07.581Z,23.23
2018-09-03T00:51:37.326Z,28.93
2018-09-03T00:54:06.237Z,25.60
2018-09-03T00:56:34.898Z,23.50
2018-09-03T00:59:04.669Z,25.50
2018-09-03T01:01:33.362Z,23.53
2018-09-03T01:04:02.950Z,24.33
2018-09-03T01:06:31.838Z,26.20
2018-09-03T01:09:00.517Z,24.17
2018-09-03T01:11:29.120Z,26.53
2018-09-03T01:13:57.775Z,26.47
2018-09-03T01:16:26.419Z,29.03
2018-09-03T01:18:55.703Z,26.70
2018-09-03T01:21:26.525Z,28.67
2018-09-03T01:23:55.642Z,26.57
2018-09-03T01:26:24.300Z,27.07
2018-09-03T01:28:53.537Z,26.13
2018-09-03T01:31:22.676Z,25.80
2018-09-03T01:33:54.504Z,27.00
2018-09-03T01:36:23.273Z,25.07
2018-09-03T01:38:51.962Z,27.90
2018-09-03T01:41:21.089Z,27.10
2018-09-03T01:43:49.854Z,26.17
2018-09-03T01:46:18.577Z,28.50
2018-09-03T01:48:47.557Z,24.60
2018-09-03T01:51:16.189Z,24.40
2018-09-03T01:53:44.906Z,23.80
2018-09-03T01:56:13.663Z,27.40
2018-09-03T01:58:42.667Z,24.70
2018-09-03T02:01:11.742Z,24.83
2018-09-03T02:03:40.437Z,23.47
2018-09-03T02:06:09.413Z,27.40
2018-09-03T02:08:38.116Z,27.87
2018-09-03T02:11:07.083Z,24.23
2018-09-03T02:13:37.342Z,24.70
2018-09-03T02:16:06.010Z,22.90
2018-09-03T02:18:34.828Z,26.03
2018-09-03T02:21:04.023Z,23.97
2018-09-03T02:23:32.665Z,26.60
2018-09-03T02:26:01.329Z,24.83
2018-09-03T02:28:30.605Z,24.13
2018-09-03T02:30:59.946Z,24.87
2018-09-03T02:33:29.465Z,24.60
2018-09-03T02:35:58.214Z,26.23
2018-09-03T02:38:28.034Z,25.67
2018-09-03T02:40:56.693Z,24.03
2018-09-03T02:43:25.449Z,27.77
2018-09-03T02:45:54.180Z,24.40
2018-09-03T02:48:22.984Z,25.03
2018-09-03T02:50:51.599Z,25.30
2018-09-03T02:53:20.353Z,25.30
2018-09-03T02:55:49.357Z,25.83
2018-09-03T02:58:20.422Z,25.70
2018-09-03T03:00:49.303Z,26.07
2018-09-03T03:03:18.037Z,26.57
2018-09-03T03:05:46.775Z,24.43
2018-09-03T03:08:15.402Z,24.13
2018-09-03T03:10:44.397Z,26.80
2018-09-03T03:13:13.231Z,27.77
2018-09-03T03:15:42.062Z,26.33
2018-09-03T03:18:11.285Z,23.87
2018-09-03T03:20:40.017Z,24.20
2018-09-03T03:23:08.745Z,22.97
2018-09-03T03:25:37.440Z,23.57
2018-09-03T03:28:06.250Z,23.60
2018-09-03T03:30:34.861Z,24.63
2018-09-03T03:33:03.597Z,24.20
2018-09-03T03:35:32.274Z,25.70
2018-09-03T03:38:00.991Z,27.50
2018-09-03T03:40:29.613Z,23.33
2018-09-03T03:42:58.482Z,24.13
2018-09-03T03:45:27.108Z,25.77
2018-09-03T03:47:55.816Z,26.13
2018-09-03T03:50:24.522Z,26.43
2018-09-03T03:52:53.218Z,26.17
2018-09-03T03:55:21.969Z,26.87
2018-09-03T03:57:50.697Z,26.63
2018-09-03T04:00:19.418Z,24.70
2018-09-03T04:02:48.029Z,26.33
2018-09-03T04:05:17.605Z,28.10
2018-09-03T04:07:46.622Z,25.57
2018-09-03T04:10:16.434Z,28.23
2018-09-03T04:12:54.401Z,26.10
2018-09-03T04:15:24.130Z,27.47
2018-09-03T04:17:53.944Z,26.40
2018-09-03T04:20:22.732Z,26.90
2018-09-03T04:22:51.471Z,26.30
2018-09-03T04:25:20.360Z,27.93
2018-09-03T04:27:49.023Z,25.00
2018-09-03T04:30:18.027Z,24.67
2018-09-03T04:32:46.687Z,30.10
2018-09-03T04:35:15.501Z,26.40
2018-09-03T04:37:44.174Z,23.67
2018-09-03T04:40:13.701Z,27.30
2018-09-03T04:42:42.483Z,24.33
2018-09-03T04:45:11.258Z,24.40
2018-09-03T04:47:39.966Z,23.27
2018-09-03T04:50:08.661Z,22.50
2018-09-03T04:52:37.586Z,22.10
2018-09-03T04:55:06.429Z,21.60
2018-09-03T04:57:35.119Z,23.67
2018-09-03T05:00:04.056Z,23.87
2018-09-03T05:02:32.748Z,25.60
2018-09-03T05:05:01.402Z,24.63
2018-09-03T05:07:30.971Z,22.97
2018-09-03T05:09:59.649Z,22.73
2018-09-03T05:12:28.377Z,23.37
2018-09-03T05:14:58.079Z,20.40
2018-09-03T05:17:26.821Z,21.97
2018-09-03T05:19:57.661Z,21.40
2018-09-03T05:22:26.881Z,21.27
2018-09-03T05:24:55.591Z,23.27
2018-09-03T05:27:24.286Z,23.37
2018-09-03T05:29:53.962Z,21.00
2018-09-03T05:32:22.625Z,21.10
2018-09-03T05:34:51.419Z,20.10
2018-09-03T05:37:20.129Z,20.30
2018-09-03T05:39:48.801Z,20.90
2018-09-03T05:42:17.477Z,23.73
2018-09-03T05:44:46.189Z,23.30
2018-09-03T05:47:14.878Z,21.47
2018-09-03T05:49:43.510Z,21.87
2018-09-03T05:52:14.993Z,23.07
2018-09-03T05:54:43.661Z,19.87
2018-09-03T05:57:12.405Z,19.47
2018-09-03T05:59:41.851Z,19.37
2018-09-03T06:02:10.733Z,19.10
2018-09-03T06:04:39.457Z,20.20
2018-09-03T06:07:08.313Z,20.17
2018-09-03T06:09:36.957Z,17.70
2018-09-03T06:12:05.626Z,18.80
2018-09-03T06:14:34.389Z,18.57
2018-09-03T06:17:03.505Z,23.30
2018-09-03T06:19:32.185Z,19.40
2018-09-03T06:22:00.969Z,21.07
2018-09-03T06:24:29.561Z,23.60
2018-09-03T06:26:58.387Z,20.53
2018-09-03T06:29:27.090Z,18.83
2018-09-03T06:31:57.082Z,19.90
2018-09-03T06:34:25.771Z,19.00
2018-09-03T06:36:54.510Z,18.40
2018-09-03T06:39:23.198Z,19.97
2018-09-03T06:41:51.880Z,18.77
2018-09-03T06:44:20.762Z,18.40
2018-09-03T06:46:50.673Z,20.00
2018-09-03T06:49:19.541Z,18.13
2018-09-03T06:51:49.468Z,17.50
2018-09-03T06:54:18.558Z,17.23
2018-09-03T06:56:47.234Z,18.67
2018-09-03T06:59:16.021Z,19.50
2018-09-03T07:01:44.804Z,17.50
2018-09-03T07:04:13.604Z,20.77
2018-09-03T07:06:42.728Z,20.07
2018-09-03T07:09:11.512Z,16.63
2018-09-03T07:11:40.198Z,19.03
2018-09-03T07:14:08.901Z,19.30
2018-09-03T07:16:37.708Z,18.10
2018-09-03T07:19:07.495Z,20.60
2018-09-03T07:21:37.933Z,16.97
2018-09-03T07:24:08.637Z,16.17
2018-09-03T07:26:39.522Z,18.43
2018-09-03T07:29:08.410Z,21.90
2018-09-03T07:31:37.094Z,18.07
2018-09-03T07:34:05.785Z,16.67
2018-09-03T07:36:34.765Z,15.60
2018-09-03T07:39:03.626Z,15.80
2018-09-03T07:41:32.882Z,15.80
2018-09-03T07:44:01.917Z,18.47
2018-09-03T07:46:32.807Z,16.70
2018-09-03T07:49:01.524Z,18.13
2018-09-03T07:51:30.143Z,18.07
2018-09-03T07:53:58.784Z,17.40
2018-09-03T07:56:27.753Z,18.23
2018-09-03T07:58:56.548Z,17.73
2018-09-03T08:01:25.279Z,19.17
2018-09-03T08:03:54.209Z,14.73
2018-09-03T08:06:23.986Z,17.47
2018-09-03T08:08:54.774Z,18.53
2018-09-03T08:11:23.415Z,17.67
2018-09-03T08:13:52.163Z,15.77
2018-09-03T08:16:20.909Z,17.07
2018-09-03T08:18:50.597Z,15.93
2018-09-03T08:21:19.209Z,18.27
2018-09-03T08:23:48.059Z,16.07
2018-09-03T08:26:17.010Z,15.77
2018-09-03T08:28:45.878Z,15.43
2018-09-03T08:31:14.550Z,29.07
2018-09-03T08:33:44.825Z,18.67
2018-09-03T08:36:13.659Z,16.43
2018-09-03T08:38:42.391Z,18.57
2018-09-03T08:41:11.128Z,18.80
2018-09-03T08:43:39.964Z,17.93
2018-09-03T08:46:08.794Z,17.10
2018-09-03T08:48:37.490Z,19.40
2018-09-03T08:51:06.133Z,16.37
2018-09-03T08:53:34.926Z,15.57
2018-09-03T08:56:03.869Z,17.47
2018-09-03T08:58:32.610Z,14.50
2018-09-03T09:01:01.254Z,20.77
2018-09-03T09:03:35.263Z,15.60
2018-09-03T09:06:04.038Z,17.90
2018-09-03T09:08:32.781Z,16.60
2018-09-03T09:11:01.531Z,16.50
2018-09-03T09:13:30.897Z,17.97
2018-09-03T09:16:00.323Z,15.83
2018-09-03T09:18:29.307Z,18.60
2018-09-03T09:20:58.002Z,16.43
2018-09-03T09:23:26.744Z,17.67
2018-09-03T09:25:56.162Z,23.03
2018-09-03T09:28:24.796Z,22.50
2018-09-03T09:30:53.728Z,13.50
2018-09-03T09:33:22.466Z,14.17
2018-09-03T09:35:51.272Z,17.17
2018-09-03T09:38:20.049Z,15.27
2018-09-03T09:40:49.734Z,19.53
2018-09-03T09:43:19.159Z,17.83
2018-09-03T09:45:47.850Z,14.03
2018-09-03T09:48:16.461Z,14.87
2018-09-03T09:50:46.653Z,14.70
2018-09-03T09:53:15.281Z,12.83
2018-09-03T09:55:44.105Z,14.57
2018-09-03T10:00:52.301Z,13.37
2018-09-03T10:03:21.062Z,16.83
2018-09-03T10:05:49.725Z,13.37
2018-09-03T10:08:18.494Z,20.07
2018-09-03T10:10:47.209Z,23.60
2018-09-03T10:13:16.117Z,27.37
2018-09-03T10:15:44.758Z,16.87
2018-09-03T10:18:13.501Z,17.97
2018-09-03T10:20:42.123Z,16.10
2018-09-03T10:23:10.865Z,17.83
2018-09-03T10:25:39.858Z,18.43
2018-09-03T10:28:08.517Z,17.47
2018-09-03T10:30:39.321Z,17.73
2018-09-03T10:33:07.989Z,12.90
2018-09-03T10:35:36.689Z,13.20
2018-09-03T10:38:05.837Z,17.53
2018-09-03T10:40:34.508Z,18.77
2018-09-03T10:43:04.217Z,16.33
2018-09-03T10:45:32.809Z,15.93
2018-09-03T10:48:01.769Z,13.67
2018-09-03T10:50:30.450Z,13.33
2018-09-03T10:52:59.243Z,14.07
2018-09-03T10:55:28.078Z,20.20
2018-09-03T10:57:56.778Z,15.73
2018-09-03T11:00:25.451Z,18.17
2018-09-03T11:02:54.033Z,13.40
2018-09-03T11:05:22.702Z,12.07
2018-09-03T11:07:51.498Z,14.50
2018-09-03T11:10:21.161Z,16.20
2018-09-03T11:12:49.921Z,20.90
2018-09-03T11:15:18.557Z,17.90
2018-09-03T11:17:47.516Z,15.83
2018-09-03T11:25:25.963Z,20.90
2018-09-03T11:27:55.498Z,16.87
2018-09-03T11:30:25.216Z,16.27
2018-09-03T11:32:55.950Z,14.10
2018-09-03T11:35:25.210Z,12.37
2018-09-03T11:37:53.847Z,11.93
2018-09-03T11:40:23.472Z,14.73
2018-09-03T11:42:52.987Z,12.07
2018-09-03T11:45:22.754Z,17.25
2018-09-03T11:47:51.510Z,13.48
2018-09-03T11:50:21.779Z,12.70
2018-09-03T11:52:55.170Z,12.78
2018-09-03T11:55:23.893Z,11.10
2018-09-03T11:57:52.709Z,12.47
2018-09-03T12:00:27.911Z,11.77
2018-09-03T12:02:59.331Z,11.90
2018-09-03T12:05:29.546Z,12.88
2018-09-03T12:07:58.501Z,12.37
2018-09-03T12:10:27.229Z,10.88
2018-09-03T12:12:56.044Z,12.80
2018-09-03T12:15:28.879Z,13.28
2018-09-03T12:17:57.925Z,11.80
2018-09-03T12:20:26.845Z,12.68
2018-09-03T12:22:55.654Z,12.75
2018-09-03T12:25:24.381Z,13.00
2018-09-03T12:27:53.132Z,11.97
2018-09-03T12:30:22.005Z,12.07
2018-09-03T12:32:50.633Z,14.28
2018-09-03T12:35:19.582Z,12.10
2018-09-03T12:37:48.935Z,12.03
2018-09-03T12:40:17.731Z,12.53
2018-09-03T12:42:46.638Z,10.68
2018-09-03T12:45:15.441Z,13.70
2018-09-03T12:47:44.054Z,13.03
2018-09-03T12:50:12.753Z,12.03
2018-09-03T12:52:41.422Z,13.48
2018-09-03T12:55:10.239Z,12.82
2018-09-03T12:57:38.898Z,11.43
2018-09-03T13:00:08.798Z,11.05
2018-09-03T13:02:39.419Z,12.13
2018-09-03T13:05:06.390Z,15.13
2018-09-03T13:07:35.118Z,11.53
2018-09-03T13:10:03.821Z,11.48
2018-09-03T13:12:32.464Z,10.60
2018-09-03T13:15:01.116Z,11.57
2018-09-03T13:17:30.081Z,10.48
2018-09-03T13:19:58.891Z,12.18
2018-09-03T13:22:27.756Z,11.12
2018-09-03T13:24:56.427Z,11.75
2018-09-03T13:27:25.134Z,16.20
2018-09-03T13:29:53.885Z,18.17
2018-09-03T13:32:22.731Z,9.80
2018-09-03T13:34:51.367Z,13.18
2018-09-03T13:37:20.090Z,10.68
2018-09-03T13:39:48.788Z,28.40
2018-09-03T13:42:17.575Z,11.97
2018-09-03T13:44:46.396Z,10.53
2018-09-03T13:47:15.057Z,10.25
2018-09-03T13:49:45.440Z,15.10
2018-09-03T13:52:14.107Z,10.98
2018-09-03T13:54:42.910Z,9.63
2018-09-03T13:57:11.738Z,9.20
2018-09-03T13:59:41.900Z,12.75
2018-09-03T14:02:10.514Z,13.93
2018-09-03T14:04:39.513Z,9.50
2018-09-03T14:07:08.231Z,11.03
2018-09-03T14:09:37.243Z,11.40
2018-09-03T14:12:06.086Z,11.68
2018-09-03T14:14:34.832Z,10.60
2018-09-03T14:17:03.565Z,10.65
2018-09-03T14:19:32.358Z,10.10
2018-09-03T14:22:01.667Z,10.05
2018-09-03T14:24:31.076Z,12.85
2018-09-03T14:26:59.970Z,11.45
2018-09-03T14:29:28.915Z,11.57
2018-09-03T14:31:57.840Z,12.33
2018-09-03T14:34:26.866Z,9.60
2018-09-03T14:36:55.602Z,14.23
2018-09-03T14:39:24.409Z,13.65
2018-09-03T14:41:53.103Z,13.50
2018-09-03T14:44:21.709Z,13.95
2018-09-03T14:46:50.501Z,13.50
2018-09-03T14:49:19.163Z,12.35
2018-09-03T14:51:48.874Z,16.05
2018-09-03T14:54:17.605Z,10.00
2018-09-03T14:56:46.434Z,10.45
2018-09-03T14:59:15.339Z,11.53
2018-09-03T15:01:45.390Z,11.28
2018-09-03T15:04:14.289Z,10.40
2018-09-03T15:06:42.943Z,11.93
2018-09-03T15:09:12.086Z,16.65
2018-09-03T15:11:41.278Z,11.83
2018-09-03T15:14:09.989Z,12.05
2018-09-03T15:16:38.653Z,12.82
2018-09-03T15:19:07.577Z,12.68
2018-09-03T15:21:36.709Z,12.58
2018-09-03T15:24:06.582Z,12.47
2018-09-03T15:26:37.744Z,12.68
2018-09-03T15:29:06.440Z,12.70
2018-09-03T15:31:35.647Z,14.53
2018-09-03T15:34:04.238Z,17.12
2018-09-03T15:36:36.319Z,16.85
2018-09-03T15:39:07.273Z,16.23
2018-09-03T15:41:35.917Z,13.87
2018-09-03T15:44:04.647Z,13.97
2018-09-03T15:46:34.846Z,16.25
2018-09-03T15:49:03.882Z,15.10
2018-09-03T15:51:32.614Z,14.03
2018-09-03T15:54:02.251Z,14.57
2018-09-03T15:56:31.662Z,13.72
2018-09-03T15:59:00.687Z,15.00
2018-09-03T16:01:29.444Z,17.17
2018-09-03T16:03:58.240Z,13.93
2018-09-03T16:06:26.940Z,14.27
2018-09-03T16:08:56.141Z,16.53
2018-09-03T16:11:24.957Z,13.57
2018-09-03T16:13:55.241Z,17.47
2018-09-03T16:16:29.107Z,18.20
2018-09-03T16:19:00.397Z,14.93
2018-09-03T16:21:29.086Z,13.87
2018-09-03T16:23:58.071Z,20.80
2018-09-03T16:26:27.046Z,14.27
2018-09-03T16:28:56.358Z,13.30
2018-09-03T16:31:26.019Z,13.77
2018-09-03T16:33:55.993Z,13.50
2018-09-03T16:36:24.705Z,14.83
2018-09-03T16:38:53.511Z,19.67
2018-09-03T16:41:22.301Z,16.57
2018-09-03T16:43:53.510Z,14.10
2018-09-03T16:46:22.161Z,19.00
2018-09-03T16:48:51.100Z,16.47
2018-09-03T16:51:20.905Z,18.67
2018-09-03T16:53:49.593Z,16.63
2018-09-03T16:56:18.420Z,16.57
2018-09-03T16:58:47.115Z,16.40
2018-09-03T17:01:15.804Z,18.97
2018-09-03T17:03:44.515Z,27.60
2018-09-03T17:06:13.324Z,17.83
2018-09-03T17:08:42.844Z,16.97
2018-09-03T17:11:11.714Z,21.07
2018-09-03T17:13:41.117Z,23.23
2018-09-03T17:16:11.034Z,19.20
2018-09-03T17:18:39.903Z,18.23
2018-09-03T17:21:09.544Z,23.37
2018-09-03T17:23:40.455Z,22.00
2018-09-03T17:26:09.265Z,18.50
2018-09-03T17:28:37.993Z,18.43
2018-09-03T17:31:10.772Z,21.20
2018-09-03T17:33:39.640Z,18.93
2018-09-03T17:36:08.422Z,18.00
2018-09-03T17:38:37.181Z,18.17
2018-09-03T17:41:06.987Z,17.73
2018-09-03T17:43:36.319Z,16.47
2018-09-03T17:46:05.000Z,20.57
2018-09-03T17:48:33.982Z,19.03
2018-09-03T17:51:02.817Z,20.30
2018-09-03T17:53:31.553Z,18.03
2018-09-03T17:56:00.323Z,17.93
2018-09-03T17:58:29.269Z,19.10
2018-09-03T18:00:58.454Z,16.60
2018-09-03T18:03:27.506Z,18.43
2018-09-03T18:05:57.738Z,18.13
2018-09-03T18:08:28.283Z,16.57
2018-09-03T18:10:57.698Z,18.07
2018-09-03T18:13:26.484Z,19.20
2018-09-03T18:15:56.231Z,19.57
2018-09-03T18:18:24.978Z,18.87
2018-09-03T18:20:53.682Z,18.77
2018-09-03T18:23:22.450Z,18.23
2018-09-03T18:25:51.262Z,17.17
2018-09-03T18:28:19.972Z,18.17
2018-09-03T18:30:48.786Z,16.77
2018-09-03T18:33:17.544Z,17.00
2018-09-03T18:35:46.305Z,19.57
2018-09-03T18:38:15.215Z,18.57
2018-09-03T18:40:44.193Z,17.83
2018-09-03T18:43:13.210Z,17.87
2018-09-03T18:45:41.940Z,22.27
2018-09-03T18:48:11.720Z,19.67
2018-09-03T18:50:42.153Z,21.10
2018-09-03T18:53:10.929Z,21.03
2018-09-03T18:55:40.041Z,20.00
2018-09-03T18:58:09.061Z,20.77
2018-09-03T19:00:37.730Z,19.87
2018-09-03T19:03:06.823Z,22.07
2018-09-03T19:05:35.667Z,21.27
2018-09-03T19:08:04.978Z,19.30
2018-09-03T19:10:34.127Z,19.40
2018-09-03T19:13:03.203Z,21.07
2018-09-03T19:15:33.246Z,21.73
2018-09-03T19:18:02.554Z,18.33
2018-09-03T19:20:31.657Z,20.63
2018-09-03T19:23:07.461Z,21.50
2018-09-03T19:25:37.572Z,21.87
2018-09-03T19:28:07.237Z,24.13
2018-09-03T19:30:39.378Z,25.80
2018-09-03T19:33:14.810Z,21.07
2018-09-03T19:35:45.216Z,18.57
2018-09-03T19:38:14.033Z,20.23
2018-09-03T19:40:42.743Z,18.00
2018-09-03T19:43:12.301Z,19.43
2018-09-03T19:45:41.216Z,19.37
2018-09-03T19:48:10.258Z,20.70
2018-09-03T19:50:38.968Z,19.87
2018-09-03T19:53:08.165Z,22.07
2018-09-03T19:55:37.890Z,19.47
2018-09-03T19:58:06.677Z,22.77
2018-09-03T20:00:35.419Z,21.97
2018-09-03T20:03:04.334Z,19.40
2018-09-03T20:05:33.459Z,22.33
2018-09-03T20:08:03.058Z,21.60
2018-09-03T20:10:31.872Z,22.20
2018-09-03T20:13:01.261Z,17.67
2018-09-03T20:15:30.030Z,18.63
2018-09-03T20:17:58.917Z,19.57
2018-09-03T20:20:27.544Z,19.80
2018-09-03T20:22:56.231Z,21.93
2018-09-03T20:25:24.877Z,23.87
2018-09-03T20:27:53.678Z,19.90
2018-09-03T20:30:23.016Z,22.70
2018-09-03T20:32:51.718Z,19.97
2018-09-03T20:35:20.594Z,20.73
2018-09-03T20:37:49.257Z,20.07
2018-09-03T20:40:17.987Z,23.57
2018-09-03T20:42:46.850Z,20.60
2018-09-03T20:45:15.568Z,18.13
2018-09-03T20:47:44.321Z,18.97
2018-09-03T20:50:13.327Z,20.87
2018-09-03T20:52:42.082Z,19.07
2018-09-03T20:55:11.172Z,17.43
2018-09-03T20:57:40.042Z,20.13
2018-09-03T21:00:09.340Z,20.40
2018-09-03T21:02:38.274Z,21.77
2018-09-03T21:05:07.422Z,22.97
2018-09-03T21:07:36.214Z,21.20
2018-09-03T21:10:07.260Z,20.57
2018-09-03T21:12:36.157Z,22.87
2018-09-03T21:15:05.055Z,19.63
2018-09-03T21:17:34.265Z,19.93
2018-09-03T21:20:03.919Z,20.10
2018-09-03T21:22:32.678Z,19.07
2018-09-03T21:25:01.438Z,18.13
2018-09-03T21:27:30.334Z,20.47
2018-09-03T21:29:59.033Z,20.47
2018-09-03T21:32:27.725Z,21.03
2018-09-03T21:34:56.491Z,21.53
2018-09-03T21:37:25.225Z,20.10
2018-09-03T21:39:53.897Z,20.97
2018-09-03T21:42:22.597Z,19.73
2018-09-03T21:44:51.289Z,21.77
2018-09-03T21:47:19.924Z,22.50
2018-09-03T21:49:49.583Z,16.80
2018-09-03T21:52:18.665Z,16.93
2018-09-03T21:54:47.947Z,19.67
2018-09-03T21:57:18.088Z,19.13
2018-09-03T21:59:46.783Z,19.63
2018-09-03T22:02:15.569Z,19.53
2018-09-03T22:04:44.393Z,19.70
2018-09-03T22:07:13.031Z,20.40
2018-09-03T22:09:41.765Z,18.87
2018-09-03T22:12:10.482Z,20.97
2018-09-03T22:14:39.265Z,20.40
2018-09-03T22:17:08.449Z,17.83
2018-09-03T22:19:38.615Z,18.93
2018-09-03T22:22:07.408Z,19.37
2018-09-03T22:24:36.116Z,21.90
2018-09-03T22:27:04.837Z,18.40
2018-09-03T22:29:33.594Z,20.00
2018-09-03T22:32:02.554Z,20.57
2018-09-03T22:34:31.373Z,20.27
2018-09-03T22:37:00.981Z,23.10
2018-09-03T22:39:29.695Z,17.60
2018-09-03T22:41:58.410Z,20.53
2018-09-03T22:44:27.094Z,23.83
2018-09-03T22:46:57.849Z,18.57
2018-09-03T22:49:27.175Z,19.40
2018-09-03T22:51:56.914Z,17.77
2018-09-03T22:54:25.641Z,18.73
2018-09-03T22:56:54.262Z,22.03
2018-09-03T22:59:23.005Z,17.47
2018-09-03T23:01:52.765Z,20.20
2018-09-03T23:04:21.835Z,16.50
2018-09-03T23:06:50.478Z,18.30
2018-09-03T23:09:19.340Z,26.10
2018-09-03T23:11:48.337Z,17.90
2018-09-03T23:14:17.455Z,22.77
2018-09-03T23:16:46.741Z,22.23
2018-09-03T23:19:15.409Z,19.37
2018-09-03T23:21:44.102Z,19.10
2018-09-03T23:24:13.102Z,17.73
2018-09-03T23:26:41.936Z,20.77
2018-09-03T23:29:10.622Z,18.27
2018-09-03T23:31:40.250Z,17.30
2018-09-03T23:34:08.920Z,21.57
2018-09-03T23:36:38.542Z,17.87
2018-09-03T23:39:07.527Z,19.50
2018-09-03T23:41:36.419Z,21.57
2018-09-03T23:44:05.081Z,21.23
2018-09-03T23:46:33.793Z,20.27
2018-09-03T23:49:02.470Z,20.57
2018-09-03T23:51:31.177Z,22.03
2018-09-03T23:53:59.976Z,20.60
2018-09-03T23:56:28.825Z,20.23
2018-09-03T23:58:58.578Z,20.87
